Time;durP1;ratioP1;P1;durP2;ratioP2;P2;SDS_P1;SDS_P2;PMS_P1;PMS_P2;Temp;Humidity;BMP_temperature;BMP_pressure;BME280_temperature;BME280_humidity;BME280_pressure;Samples;Min_cycle;Max_cycle;Signal;HPM_P1;HPM_P2
2024/01/18 00:01:01;;;;;;;8.63;4.03;;;1.40;99.90;;;;;;5057697;28;20033;-68
2024/01/18 00:03:27;;;;;;;8.90;3.95;;;1.40;99.90;;;;;;5057003;28;20100;-68
2024/01/18 00:05:52;;;;;;;8.23;3.60;;;1.50;99.90;;;;;;5057170;28;20051;-68
2024/01/18 00:08:18;;;;;;;7.57;4.00;;;1.50;99.90;;;;;;5056143;28;20028;-68
2024/01/18 00:10:43;;;;;;;10.15;3.72;;;1.50;99.90;;;;;;5056383;28;20017;-68
2024/01/18 00:13:09;;;;;;;9.88;3.78;;;1.50;99.90;;;;;;5056883;28;20033;-68
2024/01/18 00:15:34;;;;;;;7.63;2.97;;;1.40;99.90;;;;;;5055845;28;20021;-68
2024/01/18 00:18:00;;;;;;;7.35;3.42;;;1.50;99.90;;;;;;5056037;28;20021;-68
2024/01/18 00:20:27;;;;;;;7.32;3.17;;;1.40;99.90;;;;;;5055830;28;20031;-68
2024/01/18 00:22:53;;;;;;;7.68;3.10;;;1.40;99.90;;;;;;5055962;28;20083;-68
2024/01/18 00:25:19;;;;;;;6.55;3.17;;;1.50;99.90;;;;;;5056249;28;20017;-67
2024/01/18 00:27:45;;;;;;;8.43;3.15;;;1.50;99.90;;;;;;5055820;28;20021;-68
2024/01/18 00:30:11;;;;;;;8.55;2.40;;;1.50;99.90;;;;;;5056748;28;20027;-68
2024/01/18 00:32:36;;;;;;;4.55;2.45;;;1.50;99.90;;;;;;5056734;28;20028;-68
2024/01/18 00:35:02;;;;;;;4.72;2.38;;;1.50;99.90;;;;;;5055786;28;20017;-68
2024/01/18 00:37:27;;;;;;;6.68;2.60;;;1.50;99.90;;;;;;5056774;28;20036;-68
2024/01/18 00:39:53;;;;;;;8.35;3.70;;;1.40;99.90;;;;;;5056149;28;20030;-68
2024/01/18 00:42:18;;;;;;;5.90;2.40;;;1.40;99.90;;;;;;5056601;28;20036;-68
2024/01/18 00:44:44;;;;;;;5.32;2.88;;;1.30;99.90;;;;;;5056073;28;20021;-68
2024/01/18 00:47:09;;;;;;;6.30;3.40;;;1.30;99.90;;;;;;5056014;28;20024;-68
2024/01/18 00:49:35;;;;;;;6.47;3.50;;;1.30;99.90;;;;;;5055761;28;20028;-68
2024/01/18 00:52:02;;;;;;;6.75;2.55;;;1.30;99.90;;;;;;5055576;28;20025;-68
2024/01/18 00:54:28;;;;;;;6.88;2.83;;;1.40;99.90;;;;;;5056867;28;20063;-68
2024/01/18 00:56:53;;;;;;;5.90;3.00;;;1.40;99.90;;;;;;5056537;28;20060;-68
2024/01/18 00:59:19;;;;;;;6.30;3.22;;;1.50;99.90;;;;;;5056708;28;20028;-68
2024/01/18 01:01:44;;;;;;;4.40;2.60;;;1.40;99.90;;;;;;5055899;28;20017;-68
2024/01/18 01:04:10;;;;;;;6.63;2.58;;;1.40;99.90;;;;;;5056543;28;20064;-68
2024/01/18 01:06:35;;;;;;;6.13;2.40;;;1.50;99.90;;;;;;5056407;28;20013;-67
2024/01/18 01:09:01;;;;;;;7.68;2.60;;;1.50;99.90;;;;;;5057458;28;20029;-69
2024/01/18 01:11:27;;;;;;;5.18;2.33;;;1.40;99.90;;;;;;5060348;28;20049;-68
2024/01/18 01:13:53;;;;;;;4.03;2.20;;;1.40;99.90;;;;;;5060098;28;20025;-67
2024/01/18 01:16:20;;;;;;;7.47;2.80;;;1.40;99.90;;;;;;5060362;28;20036;-68
2024/01/18 01:18:46;;;;;;;10.75;2.58;;;1.40;99.90;;;;;;5060620;28;20055;-68
2024/01/18 01:21:11;;;;;;;7.20;2.50;;;1.40;99.90;;;;;;5059845;28;20020;-68
2024/01/18 01:23:41;;;;;;;4.78;2.10;;;1.40;99.90;;;;;;5058961;28;20025;-68
2024/01/18 01:26:08;;;;;;;5.43;2.60;;;1.30;99.90;;;;;;5060137;28;20032;-68
2024/01/18 01:28:34;;;;;;;5.53;2.60;;;1.30;99.90;;;;;;5059946;28;20096;-67
2024/01/18 01:30:59;;;;;;;7.47;2.35;;;1.30;99.90;;;;;;5059705;28;20106;-68
2024/01/18 01:33:25;;;;;;;4.40;2.25;;;1.40;99.90;;;;;;5059110;28;20025;-67
2024/01/18 01:35:50;;;;;;;5.07;2.08;;;1.50;99.90;;;;;;5058881;28;20031;-68
2024/01/18 01:38:16;;;;;;;4.22;2.28;;;1.40;99.90;;;;;;5059703;28;20036;-68
2024/01/18 01:40:41;;;;;;;6.20;2.78;;;1.40;99.90;;;;;;5059007;28;20032;-68
2024/01/18 01:43:07;;;;;;;7.05;2.83;;;1.30;99.90;;;;;;5059260;28;20029;-68
2024/01/18 01:45:33;;;;;;;5.85;2.33;;;1.30;99.90;;;;;;5058527;28;20053;-68
2024/01/18 01:47:58;;;;;;;6.85;2.53;;;1.30;99.90;;;;;;5058909;28;20013;-68
2024/01/18 01:50:24;;;;;;;4.63;2.63;;;1.30;99.90;;;;;;5059410;28;20032;-68
2024/01/18 01:52:50;;;;;;;6.63;3.38;;;1.30;99.90;;;;;;5059408;28;20093;-68
2024/01/18 01:55:16;;;;;;;8.15;3.47;;;1.30;99.90;;;;;;5058365;28;20025;-68
2024/01/18 01:57:45;;;;;;;4.70;3.08;;;1.20;99.90;;;;;;5058517;28;20115;-67
2024/01/18 02:00:12;;;;;;;6.03;3.03;;;1.20;99.90;;;;;;5058401;28;20021;-67
2024/01/18 02:02:41;;;;;;;11.40;3.55;;;1.20;99.90;;;;;;5058980;28;20036;-67
2024/01/18 02:05:06;;;;;;;8.00;3.42;;;1.20;99.90;;;;;;5059095;28;20025;-68
2024/01/18 02:07:36;;;;;;;6.30;3.22;;;1.30;99.90;;;;;;5058658;28;20128;-67
2024/01/18 02:10:02;;;;;;;7.13;2.90;;;1.20;99.90;;;;;;5059611;28;20017;-68
2024/01/18 02:12:29;;;;;;;5.65;2.90;;;1.20;99.90;;;;;;5058892;28;20094;-68
2024/01/18 02:14:55;;;;;;;7.45;3.42;;;1.30;99.90;;;;;;5058135;28;20063;-69
2024/01/18 02:17:20;;;;;;;9.15;4.07;;;1.30;99.90;;;;;;5059207;28;20047;-68
2024/01/18 02:19:46;;;;;;;8.13;2.83;;;1.40;99.90;;;;;;5057829;28;20079;-68
2024/01/18 02:22:16;;;;;;;8.60;3.78;;;1.40;99.90;;;;;;5057566;28;20033;-67
2024/01/18 02:24:45;;;;;;;5.40;2.72;;;1.20;99.90;;;;;;5058675;28;20021;-67
2024/01/18 02:27:11;;;;;;;6.70;3.08;;;1.20;99.90;;;;;;5057862;28;20052;-68
2024/01/18 02:29:40;;;;;;;5.75;3.00;;;1.30;99.90;;;;;;5058114;28;20021;-67
2024/01/18 02:32:06;;;;;;;5.90;2.70;;;1.40;99.90;;;;;;5041853;28;20025;-68
2024/01/18 02:34:31;;;;;;;7.03;3.20;;;1.40;99.90;;;;;;5058530;28;20032;-68
2024/01/18 02:36:57;;;;;;;8.38;3.38;;;1.30;99.90;;;;;;5058484;28;20028;-68
2024/01/18 02:39:23;;;;;;;5.75;2.92;;;1.40;99.90;;;;;;5057548;28;20021;-68
2024/01/18 02:41:48;;;;;;;4.20;2.63;;;1.20;99.90;;;;;;5057505;28;20087;-67
2024/01/18 02:44:14;;;;;;;6.32;2.60;;;1.30;99.90;;;;;;5057472;28;20036;-67
2024/01/18 02:46:40;;;;;;;5.25;2.70;;;1.30;99.90;;;;;;5058305;28;20024;-68
2024/01/18 02:49:05;;;;;;;6.20;2.72;;;1.30;99.90;;;;;;5058211;28;20063;-68
2024/01/18 02:51:32;;;;;;;4.95;2.90;;;1.30;99.90;;;;;;5058293;28;20021;-68
2024/01/18 02:53:58;;;;;;;4.22;2.40;;;1.30;99.90;;;;;;5058189;28;20070;-68
2024/01/18 02:56:24;;;;;;;8.82;3.53;;;1.30;99.90;;;;;;5058357;28;20024;-67
2024/01/18 02:58:49;;;;;;;11.27;3.63;;;1.20;99.90;;;;;;5057533;28;20031;-68
2024/01/18 03:01:15;;;;;;;5.93;2.70;;;1.20;99.90;;;;;;5057377;28;20107;-68
2024/01/18 03:03:40;;;;;;;5.28;2.72;;;1.30;99.90;;;;;;5057411;28;20028;-67
2024/01/18 03:06:06;;;;;;;8.18;3.17;;;1.20;99.90;;;;;;5058552;28;20028;-68
2024/01/18 03:08:31;;;;;;;6.97;3.25;;;1.10;99.90;;;;;;5058203;28;20025;-67
2024/01/18 03:10:57;;;;;;;7.05;2.83;;;1.10;99.90;;;;;;5058009;28;20028;-68
2024/01/18 03:13:22;;;;;;;6.03;3.17;;;1.20;99.90;;;;;;5057969;28;20063;-67
2024/01/18 03:15:48;;;;;;;7.00;3.10;;;1.20;99.90;;;;;;5057866;28;20056;-68
2024/01/18 03:18:13;;;;;;;7.50;3.35;;;1.20;99.90;;;;;;5057348;28;20053;-67
2024/01/18 03:20:39;;;;;;;5.43;3.40;;;1.10;99.90;;;;;;5057053;28;20115;-67
2024/01/18 03:23:04;;;;;;;8.02;3.65;;;1.20;99.90;;;;;;5057621;28;20104;-67
2024/01/18 03:25:30;;;;;;;6.55;3.03;;;1.10;99.90;;;;;;5056996;28;20025;-67
2024/01/18 03:27:56;;;;;;;7.88;3.75;;;1.00;99.90;;;;;;5056716;28;20021;-68
2024/01/18 03:30:21;;;;;;;6.22;3.15;;;1.10;99.90;;;;;;5057047;28;20017;-67
2024/01/18 03:32:47;;;;;;;5.88;2.80;;;1.10;99.90;;;;;;5056347;28;20013;-67
2024/01/18 03:35:12;;;;;;;7.22;3.50;;;1.10;99.90;;;;;;5056574;28;20017;-68
2024/01/18 03:37:38;;;;;;;6.55;2.97;;;1.10;99.90;;;;;;5056612;28;20029;-68
2024/01/18 03:40:05;;;;;;;6.20;3.72;;;1.10;99.90;;;;;;5056544;28;20032;-67
2024/01/18 03:42:30;;;;;;;8.77;3.92;;;1.10;99.90;;;;;;5057349;28;20102;-68
2024/01/18 03:44:56;;;;;;;11.13;3.80;;;1.10;99.90;;;;;;5057753;28;20064;-68
2024/01/18 03:47:21;;;;;;;10.52;3.53;;;1.20;99.90;;;;;;5056346;28;20031;-68
2024/01/18 03:49:47;;;;;;;9.90;3.70;;;1.20;99.90;;;;;;5057357;28;20025;-68
2024/01/18 03:52:12;;;;;;;10.18;3.92;;;1.20;99.90;;;;;;5056431;28;20024;-68
2024/01/18 03:54:39;;;;;;;8.23;3.65;;;1.20;99.90;;;;;;5057146;28;20040;-68
2024/01/18 03:57:05;;;;;;;8.05;3.63;;;1.20;99.90;;;;;;5057200;28;20024;-68
2024/01/18 03:59:30;;;;;;;9.50;3.35;;;1.30;99.90;;;;;;5057333;28;20025;-68
2024/01/18 04:01:56;;;;;;;7.45;3.38;;;1.20;99.90;;;;;;5057027;28;20059;-68
2024/01/18 04:04:22;;;;;;;6.20;3.38;;;1.20;99.90;;;;;;5057214;28;20020;-67
2024/01/18 04:06:49;;;;;;;7.32;3.15;;;1.10;99.90;;;;;;5057024;28;20028;-67
2024/01/18 04:09:14;;;;;;;7.80;3.40;;;1.20;99.90;;;;;;5057118;28;20017;-67
2024/01/18 04:11:41;;;;;;;6.75;3.40;;;1.20;99.90;;;;;;5056849;28;20025;-67
2024/01/18 04:14:06;;;;;;;9.32;3.63;;;1.30;99.90;;;;;;5056952;28;20127;-67
2024/01/18 04:16:33;;;;;;;12.55;4.03;;;1.20;99.90;;;;;;5057115;28;20115;-68
2024/01/18 04:18:58;;;;;;;8.65;3.65;;;1.20;99.90;;;;;;5056170;28;20048;-67
2024/01/18 04:21:24;;;;;;;9.20;4.10;;;1.10;99.90;;;;;;5056970;28;20025;-67
2024/01/18 04:23:50;;;;;;;9.48;4.38;;;1.20;99.90;;;;;;5055765;28;20033;-67
2024/01/18 04:26:16;;;;;;;11.85;4.40;;;1.10;99.90;;;;;;5056828;28;20086;-67
2024/01/18 04:28:42;;;;;;;10.80;3.95;;;1.10;99.90;;;;;;5056781;28;20055;-67
2024/01/18 04:31:08;;;;;;;10.10;4.15;;;1.20;99.90;;;;;;5056650;28;20065;-67
2024/01/18 04:33:33;;;;;;;8.82;3.80;;;1.20;99.90;;;;;;5056001;28;20044;-68
2024/01/18 04:35:59;;;;;;;7.90;4.00;;;1.20;99.90;;;;;;5056592;28;20032;-67
2024/01/18 04:38:24;;;;;;;8.68;4.07;;;1.20;99.90;;;;;;5055877;28;20067;-67
2024/01/18 04:40:50;;;;;;;8.23;3.63;;;1.20;99.90;;;;;;5055705;28;20036;-68
2024/01/18 04:43:16;;;;;;;7.85;3.45;;;1.20;99.90;;;;;;5057003;28;20079;-68
2024/01/18 04:45:42;;;;;;;8.95;3.50;;;1.10;99.90;;;;;;5060672;28;20024;-68
2024/01/18 04:48:08;;;;;;;7.25;3.47;;;1.10;99.90;;;;;;5060684;28;20112;-68
2024/01/18 04:50:33;;;;;;;10.68;4.30;;;1.10;99.90;;;;;;5060487;28;20028;-67
2024/01/18 04:53:00;;;;;;;10.32;4.20;;;1.10;99.90;;;;;;5060562;28;20033;-67
2024/01/18 04:55:26;;;;;;;9.38;3.67;;;1.10;99.90;;;;;;5060364;28;20098;-67
2024/01/18 04:57:52;;;;;;;8.63;3.47;;;1.10;99.90;;;;;;5060451;28;20021;-68
2024/01/18 05:00:17;;;;;;;9.35;3.83;;;1.10;99.90;;;;;;5060735;28;20092;-68
2024/01/18 05:02:44;;;;;;;8.55;4.07;;;1.00;99.90;;;;;;5059667;28;20029;-67
2024/01/18 05:05:11;;;;;;;8.65;3.40;;;1.10;99.90;;;;;;5059546;28;20048;-67
2024/01/18 05:07:44;;;;;;;10.35;4.00;;;1.00;99.90;;;;;;5060575;28;20025;-67
2024/01/18 05:10:10;;;;;;;8.10;3.67;;;1.10;99.90;;;;;;5060225;28;20017;-67
2024/01/18 05:12:37;;;;;;;13.50;4.50;;;1.10;99.90;;;;;;5059472;28;20025;-67
2024/01/18 05:15:03;;;;;;;10.73;4.35;;;1.00;99.90;;;;;;5059263;28;20025;-67
2024/01/18 05:17:34;;;;;;;10.65;4.13;;;1.10;99.90;;;;;;5059131;28;20099;-68
2024/01/18 05:20:01;;;;;;;9.20;4.50;;;1.00;99.90;;;;;;5060116;28;20024;-67
2024/01/18 05:22:26;;;;;;;10.35;4.65;;;1.10;99.90;;;;;;5059973;28;20112;-67
2024/01/18 05:24:52;;;;;;;10.45;5.03;;;1.00;99.90;;;;;;5060430;28;20104;-68
2024/01/18 05:27:17;;;;;;;9.82;3.97;;;1.00;99.90;;;;;;5058941;28;20089;-67
2024/01/18 05:29:43;;;;;;;13.75;5.65;;;1.10;99.90;;;;;;5060201;28;20076;-67
2024/01/18 05:32:08;;;;;;;11.93;5.20;;;1.00;99.90;;;;;;5059760;28;20096;-67
2024/01/18 05:34:34;;;;;;;12.30;5.63;;;1.00;99.90;;;;;;5060099;28;20032;-67
2024/01/18 05:36:59;;;;;;;13.32;5.90;;;1.00;99.90;;;;;;5058929;28;20071;-67
2024/01/18 05:39:25;;;;;;;15.43;5.88;;;0.80;99.90;;;;;;5059068;28;20127;-68
2024/01/18 05:41:51;;;;;;;13.40;5.18;;;0.70;99.90;;;;;;5059264;28;20029;-67
2024/01/18 05:44:16;;;;;;;17.70;6.43;;;0.80;99.90;;;;;;5059575;28;20021;-68
2024/01/18 05:46:42;;;;;;;16.02;5.50;;;0.80;99.90;;;;;;5059699;28;20028;-67
2024/01/18 05:49:07;;;;;;;13.68;5.65;;;0.70;99.90;;;;;;5059459;28;20025;-67
2024/01/18 05:51:34;;;;;;;18.20;7.38;;;0.60;99.90;;;;;;5058565;28;20056;-67
2024/01/18 05:53:59;;;;;;;15.27;6.57;;;0.50;99.90;;;;;;5058433;28;20031;-67
2024/01/18 05:56:26;;;;;;;20.25;7.03;;;0.50;99.90;;;;;;5057714;28;20068;-67
2024/01/18 05:58:51;;;;;;;16.88;6.93;;;0.50;99.90;;;;;;5059444;28;20070;-67
2024/01/18 06:01:17;;;;;;;24.92;7.80;;;0.50;99.90;;;;;;5059429;28;20024;-68
2024/01/18 06:03:42;;;;;;;18.83;7.35;;;0.70;99.90;;;;;;5058642;28;20024;-67
2024/01/18 06:06:09;;;;;;;20.77;7.60;;;0.60;99.90;;;;;;5058149;28;20024;-68
2024/01/18 06:08:35;;;;;;;18.55;8.18;;;0.50;99.90;;;;;;5059084;28;20096;-68
2024/01/18 06:11:02;;;;;;;18.25;8.45;;;0.50;99.90;;;;;;5058355;28;20043;-67
2024/01/18 06:13:28;;;;;;;24.58;8.57;;;0.70;99.90;;;;;;5058079;28;20117;-68
2024/01/18 06:15:53;;;;;;;20.20;8.85;;;0.70;99.90;;;;;;5058176;28;20075;-67
2024/01/18 06:18:19;;;;;;;18.75;8.40;;;0.50;99.90;;;;;;5058166;28;20031;-67
2024/01/18 06:20:44;;;;;;;22.08;8.55;;;0.60;99.90;;;;;;5058777;28;20032;-68
2024/01/18 06:23:10;;;;;;;16.50;6.95;;;0.50;99.90;;;;;;5058025;28;20049;-67
2024/01/18 06:25:35;;;;;;;16.88;7.70;;;0.60;99.90;;;;;;5058718;28;20108;-68
2024/01/18 06:28:03;;;;;;;20.42;8.73;;;0.60;99.90;;;;;;5058116;28;20021;-68
2024/01/18 06:30:29;;;;;;;17.67;7.20;;;0.60;99.90;;;;;;5058626;28;20017;-68
2024/01/18 06:32:54;;;;;;;15.55;6.20;;;0.60;99.90;;;;;;5058097;28;20025;-67
2024/01/18 06:35:20;;;;;;;15.93;6.90;;;0.50;99.90;;;;;;5058169;28;20033;-67
2024/01/18 06:37:45;;;;;;;16.17;6.53;;;0.50;99.90;;;;;;5057740;28;20025;-67
2024/01/18 06:40:11;;;;;;;13.77;5.43;;;0.40;99.90;;;;;;5058309;28;20031;-67
2024/01/18 06:42:37;;;;;;;16.38;6.22;;;0.50;99.90;;;;;;5057765;28;20028;-67
2024/01/18 06:45:03;;;;;;;14.68;6.00;;;0.50;99.90;;;;;;5057543;28;20116;-68
2024/01/18 06:47:28;;;;;;;19.40;6.30;;;0.50;99.90;;;;;;5058330;28;20025;-67
2024/01/18 06:49:54;;;;;;;12.80;5.60;;;0.50;99.90;;;;;;5058574;28;20013;-68
2024/01/18 06:52:20;;;;;;;12.25;6.25;;;0.30;99.90;;;;;;5058171;28;20025;-67
2024/01/18 06:54:45;;;;;;;14.57;5.97;;;0.40;99.90;;;;;;5057477;28;20029;-67
2024/01/18 06:57:11;;;;;;;11.88;6.28;;;0.40;99.90;;;;;;5057290;28;20032;-67
2024/01/18 06:59:42;;;;;;;19.33;7.43;;;0.30;99.90;;;;;;5057950;28;20024;-68
2024/01/18 07:02:08;;;;;;;16.92;5.80;;;0.30;99.90;;;;;;5058668;28;20035;-67
2024/01/18 07:04:33;;;;;;;17.17;6.45;;;0.30;99.90;;;;;;5057090;28;20029;-67
2024/01/18 07:06:59;;;;;;;18.05;6.32;;;0.20;99.90;;;;;;5056763;28;20021;-67
2024/01/18 07:09:24;;;;;;;16.55;6.57;;;0.00;99.90;;;;;;5057944;28;20021;-67
2024/01/18 07:11:50;;;;;;;15.40;6.60;;;0.00;99.90;;;;;;5057651;28;20025;-67
2024/01/18 07:14:15;;;;;;;12.45;5.35;;;0.10;99.90;;;;;;5058007;28;20051;-68
2024/01/18 07:16:41;;;;;;;14.85;5.88;;;0.10;99.90;;;;;;5057684;28;20024;-67
2024/01/18 07:19:06;;;;;;;14.57;6.03;;;0.30;99.90;;;;;;5057864;28;20032;-67
2024/01/18 07:21:32;;;;;;;17.13;6.95;;;0.40;99.90;;;;;;5056936;28;20044;-67
2024/01/18 07:23:57;;;;;;;17.50;7.20;;;0.30;99.90;;;;;;5057287;28;20078;-67
2024/01/18 07:26:23;;;;;;;15.45;6.68;;;0.30;99.90;;;;;;5057766;28;20071;-67
2024/01/18 07:28:50;;;;;;;15.48;6.03;;;0.20;99.90;;;;;;5057577;28;20056;-67
2024/01/18 07:31:15;;;;;;;15.20;6.03;;;0.30;99.90;;;;;;5057216;28;20063;-67
2024/01/18 07:33:41;;;;;;;14.40;6.75;;;0.40;99.90;;;;;;5057945;28;20020;-67
2024/01/18 07:36:06;;;;;;;18.40;7.60;;;0.30;99.90;;;;;;5057479;28;20044;-67
2024/01/18 07:38:32;;;;;;;20.33;7.55;;;0.40;99.90;;;;;;5057500;28;20029;-67
2024/01/18 07:40:57;;;;;;;20.83;8.27;;;0.30;99.90;;;;;;5056525;28;20029;-67
2024/01/18 07:43:24;;;;;;;18.50;7.18;;;0.20;99.90;;;;;;5057523;28;20029;-67
2024/01/18 07:45:49;;;;;;;20.30;7.38;;;0.20;99.90;;;;;;5057420;28;20028;-67
2024/01/18 07:48:16;;;;;;;16.88;7.00;;;0.30;99.90;;;;;;5058252;28;20041;-68
2024/01/18 07:50:41;;;;;;;17.13;6.15;;;0.20;99.90;;;;;;5057512;28;20092;-67
2024/01/18 07:53:07;;;;;;;22.50;7.45;;;0.30;99.90;;;;;;5057319;28;20025;-67
2024/01/18 07:55:33;;;;;;;22.25;8.40;;;0.30;99.90;;;;;;5056225;28;20063;-67
2024/01/18 07:57:58;;;;;;;22.10;8.05;;;0.30;99.90;;;;;;5057252;28;20040;-67
2024/01/18 08:00:24;;;;;;;18.90;7.70;;;0.30;99.90;;;;;;5057157;28;20021;-67
2024/01/18 08:02:50;;;;;;;21.58;9.23;;;0.30;99.90;;;;;;5056825;28;20025;-67
2024/01/18 08:05:16;;;;;;;26.42;9.15;;;0.30;99.90;;;;;;5056242;28;20040;-67
2024/01/18 08:07:41;;;;;;;25.08;8.70;;;0.30;99.90;;;;;;5056725;28;20025;-67
2024/01/18 08:10:08;;;;;;;23.85;8.68;;;0.30;99.90;;;;;;5056058;28;20025;-67
2024/01/18 08:12:34;;;;;;;23.20;9.73;;;0.40;99.90;;;;;;5056924;28;20017;-67
2024/01/18 08:14:59;;;;;;;26.25;10.05;;;0.50;99.90;;;;;;5057126;28;20040;-67
2024/01/18 08:17:25;;;;;;;21.15;9.40;;;0.50;99.90;;;;;;5055750;28;20028;-67
2024/01/18 08:19:51;;;;;;;26.05;9.63;;;0.50;99.90;;;;;;5056768;28;20025;-67
2024/01/18 08:22:18;;;;;;;28.77;9.82;;;0.50;99.90;;;;;;5057004;28;20025;-67
2024/01/18 08:24:43;;;;;;;28.33;10.95;;;0.50;99.90;;;;;;5056877;28;20108;-67
2024/01/18 08:27:10;;;;;;;26.50;10.38;;;0.50;99.90;;;;;;5056792;28;20105;-67
2024/01/18 08:29:37;;;;;;;27.92;11.18;;;0.50;99.90;;;;;;5055839;28;20021;-67
2024/01/18 08:32:03;;;;;;;26.17;11.40;;;0.50;99.90;;;;;;5056746;28;20025;-67
2024/01/18 08:34:28;;;;;;;27.83;10.68;;;0.50;99.90;;;;;;5056991;28;20025;-67
2024/01/18 08:36:54;;;;;;;27.95;11.75;;;0.50;99.90;;;;;;5055861;28;20021;-67
2024/01/18 08:39:19;;;;;;;27.33;10.98;;;0.60;99.90;;;;;;5055744;28;20119;-67
2024/01/18 08:41:45;;;;;;;30.38;13.43;;;0.60;99.90;;;;;;5055674;28;20058;-67
2024/01/18 08:44:10;;;;;;;32.60;11.80;;;0.70;99.90;;;;;;5055683;28;20017;-67
2024/01/18 08:46:38;;;;;;;28.85;12.85;;;0.70;99.90;;;;;;5056499;28;20017;-67
2024/01/18 08:49:04;;;;;;;31.92;11.60;;;0.80;99.90;;;;;;5055835;28;20104;-67
2024/01/18 08:51:30;;;;;;;27.60;11.15;;;0.80;99.90;;;;;;5057136;28;20093;-67
2024/01/18 08:53:55;;;;;;;29.13;12.07;;;0.80;99.90;;;;;;5055724;28;20029;-67
2024/01/18 08:56:21;;;;;;;35.75;12.85;;;0.90;99.90;;;;;;5056361;28;20108;-67
2024/01/18 08:58:46;;;;;;;30.02;11.20;;;0.90;99.90;;;;;;5057023;28;20036;-67
2024/01/18 09:01:12;;;;;;;34.40;12.80;;;0.90;99.90;;;;;;5056448;28;20092;-67
2024/01/18 09:03:37;;;;;;;28.35;12.07;;;0.80;99.90;;;;;;5056413;28;20031;-67
2024/01/18 09:06:03;;;;;;;33.88;12.05;;;0.80;99.90;;;;;;5056483;28;20049;-66
2024/01/18 09:08:29;;;;;;;25.95;11.15;;;0.80;99.90;;;;;;5056617;28;20079;-67
2024/01/18 09:10:54;;;;;;;26.27;11.30;;;0.90;99.90;;;;;;5056496;28;20053;-67
2024/01/18 09:13:20;;;;;;;32.83;10.55;;;1.00;99.90;;;;;;5055412;28;20065;-68
2024/01/18 09:15:47;;;;;;;30.38;10.77;;;1.00;99.90;;;;;;5056424;28;20045;-67
2024/01/18 09:18:13;;;;;;;26.77;11.02;;;0.90;99.90;;;;;;5056553;28;20100;-68
2024/01/18 09:20:40;;;;;;;26.15;10.25;;;0.90;99.90;;;;;;5056202;28;20025;-66
2024/01/18 09:23:05;;;;;;;31.38;11.18;;;0.90;99.90;;;;;;5056812;28;20025;-67
2024/01/18 09:25:31;;;;;;;30.15;11.52;;;0.90;99.90;;;;;;5055306;28;20027;-68
2024/01/18 09:27:56;;;;;;;27.35;10.85;;;0.90;99.90;;;;;;5056614;28;20025;-68
2024/01/18 09:30:23;;;;;;;32.40;11.32;;;1.00;99.90;;;;;;5057686;28;20017;-68
2024/01/18 09:32:49;;;;;;;30.30;11.98;;;0.80;99.90;;;;;;5059058;28;20017;-67
2024/01/18 09:35:14;;;;;;;21.08;10.68;;;0.90;99.90;;;;;;5059840;28;20100;-67
2024/01/18 09:37:40;;;;;;;26.60;10.90;;;0.80;99.90;;;;;;5059734;28;20033;-67
2024/01/18 09:40:09;;;;;;;36.67;12.68;;;0.90;99.90;;;;;;5058569;28;20041;-67
2024/01/18 09:42:36;;;;;;;30.50;10.75;;;0.90;99.90;;;;;;5059622;28;20017;-66
2024/01/18 09:45:09;;;;;;;25.95;10.52;;;0.90;99.90;;;;;;5059545;28;20031;-66
2024/01/18 09:47:35;;;;;;;24.67;11.05;;;0.90;99.90;;;;;;5058765;28;20035;-67
2024/01/18 09:50:00;;;;;;;30.20;10.18;;;0.90;99.90;;;;;;5059527;28;20131;-67
2024/01/18 09:52:26;;;;;;;25.65;11.07;;;0.90;99.90;;;;;;5059348;28;20029;-67
2024/01/18 09:54:52;;;;;;;24.55;10.68;;;1.00;99.90;;;;;;5059549;28;20123;-66
2024/01/18 09:57:25;;;;;;;24.65;11.13;;;1.00;99.90;;;;;;5059586;28;20025;-67
2024/01/18 09:59:56;;;;;;;26.40;11.38;;;1.10;99.90;;;;;;5058489;28;20025;-67
2024/01/18 10:02:22;;;;;;;21.92;9.45;;;1.10;99.90;;;;;;5059363;28;20035;-68
2024/01/18 10:04:49;;;;;;;27.45;10.60;;;1.20;99.90;;;;;;5059199;28;20021;-68
2024/01/18 10:07:14;;;;;;;22.83;9.77;;;1.40;99.90;;;;;;5059172;28;20025;-68
2024/01/18 10:09:40;;;;;;;28.60;10.88;;;1.20;99.90;;;;;;5058197;28;20071;-68
2024/01/18 10:12:06;;;;;;;30.73;11.55;;;1.20;99.90;;;;;;5059324;28;20061;-68
2024/01/18 10:14:42;;;;;;;26.15;10.25;;;1.20;99.90;;;;;;5058286;28;20028;-68
2024/01/18 10:17:09;;;;;;;28.05;10.18;;;1.20;99.90;;;;;;5058392;28;20078;-68
2024/01/18 10:19:34;;;;;;;25.08;10.00;;;1.40;99.90;;;;;;5059103;28;20031;-68
2024/01/18 10:22:00;;;;;;;22.33;9.30;;;1.40;99.90;;;;;;5058808;28;20025;-68
2024/01/18 10:24:26;;;;;;;24.67;10.02;;;1.50;99.90;;;;;;5057833;28;20025;-68
2024/01/18 10:27:04;;;;;;;22.98;8.93;;;1.60;99.90;;;;;;5058770;28;20020;-68
2024/01/18 10:29:36;;;;;;;22.08;9.73;;;1.70;99.90;;;;;;5058252;28;20056;-68
2024/01/18 10:32:03;;;;;;;20.00;8.20;;;1.70;99.90;;;;;;5057861;28;20018;-67
2024/01/18 10:34:34;;;;;;;25.92;8.63;;;1.70;99.90;;;;;;5058554;28;20155;-67
2024/01/18 10:37:00;;;;;;;24.08;8.88;;;1.70;99.90;;;;;;5057712;28;20029;-67
2024/01/18 10:39:25;;;;;;;26.27;8.65;;;1.90;99.90;;;;;;5058720;28;20048;-67
2024/01/18 10:41:51;;;;;;;23.48;8.40;;;1.90;99.90;;;;;;5058051;28;20093;-67
2024/01/18 10:44:17;;;;;;;17.90;7.63;;;1.90;99.90;;;;;;5058448;28;20029;-67
2024/01/18 10:46:43;;;;;;;22.00;9.23;;;1.90;99.90;;;;;;5058462;28;20028;-67
2024/01/18 10:49:10;;;;;;;23.52;7.75;;;2.00;99.90;;;;;;5058671;28;20040;-67
2024/01/18 10:51:39;;;;;;;15.02;6.95;;;2.00;99.90;;;;;;5058484;28;20021;-67
2024/01/18 10:54:07;;;;;;;23.52;8.10;;;2.00;99.90;;;;;;5057469;28;20025;-67
2024/01/18 10:56:33;;;;;;;14.95;6.20;;;2.00;99.90;;;;;;5058339;28;20021;-67
2024/01/18 10:58:58;;;;;;;18.52;7.40;;;2.00;99.90;;;;;;5058142;28;20043;-67
2024/01/18 11:01:24;;;;;;;17.73;7.40;;;2.00;99.90;;;;;;5057257;28;20051;-67
2024/01/18 11:03:52;;;;;;;20.95;6.78;;;2.00;99.90;;;;;;5057178;28;20021;-67
2024/01/18 11:06:18;;;;;;;16.45;6.93;;;1.80;99.90;;;;;;5058139;28;20028;-67
2024/01/18 11:08:46;;;;;;;15.20;7.30;;;1.70;99.90;;;;;;5057551;28;20107;-67
2024/01/18 11:11:12;;;;;;;20.02;7.82;;;1.80;99.90;;;;;;5057892;28;20021;-67
2024/01/18 11:13:38;;;;;;;18.90;6.82;;;1.90;99.90;;;;;;5058170;28;20040;-67
2024/01/18 11:16:04;;;;;;;18.92;7.28;;;1.90;99.90;;;;;;5057714;28;20025;-67
2024/01/18 11:18:29;;;;;;;21.27;7.63;;;2.00;99.90;;;;;;5057744;28;20039;-67
2024/01/18 11:20:58;;;;;;;20.30;8.32;;;1.90;99.90;;;;;;5056796;28;20025;-67
2024/01/18 11:23:40;;;;;;;22.08;8.48;;;1.90;99.90;;;;;;5057551;28;20032;-67
2024/01/18 11:26:08;;;;;;;14.07;7.18;;;1.90;99.90;;;;;;5057619;28;20032;-66
2024/01/18 11:28:35;;;;;;;20.02;7.20;;;1.90;99.90;;;;;;5057085;28;20024;-67
2024/01/18 11:31:01;;;;;;;24.85;7.25;;;2.00;99.90;;;;;;5057021;28;20103;-67
2024/01/18 11:33:27;;;;;;;20.25;7.35;;;2.00;99.90;;;;;;5056691;28;20029;-67
2024/01/18 11:35:53;;;;;;;18.83;7.50;;;2.00;99.90;;;;;;5057741;28;20060;-67
2024/01/18 11:38:33;;;;;;;20.85;8.65;;;2.00;99.90;;;;;;5056465;28;20029;-67
2024/01/18 11:41:18;;;;;;;16.08;6.93;;;2.00;99.90;;;;;;5057330;28;20047;-67
2024/01/18 11:43:56;;;;;;;18.35;7.93;;;2.10;99.90;;;;;;5057435;28;20036;-67
2024/01/18 11:46:47;;;;;;;15.93;7.60;;;2.10;99.90;;;;;;5057562;28;20083;-67
2024/01/18 11:49:13;;;;;;;19.40;7.10;;;2.20;99.90;;;;;;5057320;28;20017;-67
2024/01/18 11:51:40;;;;;;;16.33;6.32;;;2.20;99.90;;;;;;5057611;28;20140;-67
2024/01/18 11:54:07;;;;;;;14.93;6.55;;;2.40;99.90;;;;;;5057253;28;20025;-67
2024/01/18 11:56:36;;;;;;;17.65;6.75;;;2.50;99.90;;;;;;5057120;28;20031;-67
2024/01/18 11:59:02;;;;;;;28.77;7.72;;;2.40;99.90;;;;;;5056167;28;20078;-67
2024/01/18 12:01:28;;;;;;;19.05;7.18;;;2.50;99.90;;;;;;5057455;28;20017;-67
2024/01/18 12:03:53;;;;;;;16.75;6.70;;;2.60;99.90;;;;;;5056087;28;20086;-67
2024/01/18 12:06:20;;;;;;;18.90;6.15;;;2.70;99.90;;;;;;5057063;28;20055;-67
2024/01/18 12:08:46;;;;;;;14.63;5.70;;;2.70;99.90;;;;;;5056217;28;20018;-67
2024/01/18 12:11:13;;;;;;;16.40;6.18;;;2.80;99.90;;;;;;5056131;28;20024;-66
2024/01/18 12:13:38;;;;;;;18.23;5.93;;;3.00;99.90;;;;;;5057143;28;20032;-67
2024/01/18 12:16:05;;;;;;;19.20;6.22;;;3.20;99.90;;;;;;5056936;28;20021;-67
2024/01/18 12:18:41;;;;;;;16.77;5.55;;;3.40;99.90;;;;;;5056873;28;20083;-67
2024/01/18 12:21:07;;;;;;;12.32;4.18;;;3.40;99.90;;;;;;5056069;28;20025;-67
2024/01/18 12:23:32;;;;;;;10.82;4.65;;;3.40;99.90;;;;;;5057048;28;20074;-67
2024/01/18 12:25:58;;;;;;;10.85;5.50;;;3.40;99.90;;;;;;5057236;28;20021;-67
2024/01/18 12:28:25;;;;;;;8.68;4.43;;;3.30;99.90;;;;;;5055888;28;20021;-67
2024/01/18 12:30:51;;;;;;;11.55;5.22;;;3.40;99.90;;;;;;5056747;28;20052;-67
2024/01/18 12:33:17;;;;;;;13.77;4.68;;;3.50;99.90;;;;;;5056764;28;20063;-67
2024/01/18 12:35:42;;;;;;;15.00;5.10;;;3.60;99.90;;;;;;5056859;28;20112;-67
2024/01/18 12:38:08;;;;;;;16.73;5.20;;;3.70;99.90;;;;;;5056799;28;20028;-67
2024/01/18 12:40:34;;;;;;;11.02;4.85;;;3.80;99.90;;;;;;5056881;28;20068;-67
2024/01/18 12:43:03;;;;;;;9.50;4.13;;;3.80;99.90;;;;;;5057152;28;20032;-67